createdAt,value
2018-01-29T00:00:26.257Z,8.80
2018-01-29T00:02:53.871Z,8.70
2018-01-29T00:05:21.450Z,8.80
2018-01-29T00:07:49.074Z,8.80
2018-01-29T00:10:16.680Z,8.80
2018-01-29T00:12:44.324Z,8.80
2018-01-29T00:15:12.930Z,8.80
2018-01-29T00:17:40.523Z,8.80
2018-01-29T00:20:11.532Z,8.90
2018-01-29T00:22:39.133Z,8.90
2018-01-29T00:25:06.760Z,8.90
2018-01-29T00:27:34.372Z,9.00
2018-01-29T00:30:02.003Z,9.00
2018-01-29T00:32:30.404Z,9.10
2018-01-29T00:35:04.236Z,9.10
2018-01-29T00:37:31.837Z,9.20
2018-01-29T00:40:00.224Z,9.40
2018-01-29T00:42:27.833Z,9.40
2018-01-29T00:44:55.454Z,9.60
2018-01-29T00:47:23.053Z,9.60
2018-01-29T00:49:51.657Z,9.70
2018-01-29T00:52:19.257Z,9.90
2018-01-29T00:54:48.845Z,9.90
2018-01-29T00:57:17.206Z,9.90
2018-01-29T00:59:44.842Z,10.00
2018-01-29T01:02:12.456Z,9.90
2018-01-29T01:04:40.990Z,9.90
2018-01-29T01:07:08.607Z,9.90
2018-01-29T01:09:36.221Z,9.80
2018-01-29T01:12:03.857Z,9.70
2018-01-29T01:14:31.474Z,9.70
2018-01-29T01:16:59.875Z,9.60
2018-01-29T01:19:28.401Z,9.60
2018-01-29T01:21:56.010Z,9.60
2018-01-29T01:24:23.644Z,9.70
2018-01-29T01:26:51.259Z,9.60
2018-01-29T01:29:18.880Z,9.60
2018-01-29T01:31:47.251Z,9.70
2018-01-29T01:34:22.019Z,9.70
2018-01-29T01:36:49.685Z,9.70
2018-01-29T01:39:19.196Z,9.70
2018-01-29T01:41:46.783Z,9.70
2018-01-29T01:44:19.356Z,9.70
2018-01-29T01:46:46.951Z,9.80
2018-01-29T01:49:14.571Z,9.80
2018-01-29T01:51:42.151Z,9.80
2018-01-29T01:54:10.845Z,9.80
2018-01-29T01:56:39.216Z,9.80
2018-01-29T01:59:13.208Z,9.80
2018-01-29T02:01:40.812Z,9.80
2018-01-29T02:04:14.132Z,9.80
2018-01-29T02:06:41.712Z,9.90
2018-01-29T02:09:19.179Z,9.90
2018-01-29T02:11:46.795Z,9.90
2018-01-29T02:14:17.101Z,10.00
2018-01-29T02:16:44.704Z,10.00
2018-01-29T02:19:13.337Z,9.90
2018-01-29T02:21:40.942Z,10.00
2018-01-29T02:24:08.569Z,10.10
2018-01-29T02:26:36.176Z,10.10
2018-01-29T02:29:03.764Z,10.20
2018-01-29T02:31:31.390Z,10.10
2018-01-29T02:34:00.012Z,10.10
2018-01-29T02:36:27.650Z,10.10
2018-01-29T02:38:58.715Z,10.20
2018-01-29T02:41:26.347Z,10.20
2018-01-29T02:44:05.262Z,10.20
2018-01-29T02:46:32.880Z,10.40
2018-01-29T02:49:05.212Z,10.30
2018-01-29T02:51:33.259Z,10.40
2018-01-29T02:54:00.840Z,10.30
2018-01-29T02:56:28.476Z,10.40
2018-01-29T02:58:56.075Z,10.40
2018-01-29T03:01:23.700Z,10.40
2018-01-29T03:03:52.252Z,10.40
2018-01-29T03:06:20.605Z,10.40
2018-01-29T03:08:50.227Z,10.40
2018-01-29T03:11:17.806Z,10.40
2018-01-29T03:13:47.201Z,10.40
2018-01-29T03:16:14.796Z,10.40
2018-01-29T03:18:42.408Z,10.40
2018-01-29T03:21:09.995Z,10.40
2018-01-29T03:23:43.146Z,10.40
2018-01-29T03:26:10.724Z,10.40
2018-01-29T03:28:42.242Z,10.40
2018-01-29T03:31:09.857Z,10.50
2018-01-29T03:33:38.506Z,10.40
2018-01-29T03:36:06.129Z,10.50
2018-01-29T03:38:33.752Z,10.40
2018-01-29T03:41:02.127Z,10.40
2018-01-29T03:43:32.402Z,10.40
2018-01-29T03:46:00.037Z,10.30
2018-01-29T03:48:28.661Z,10.30
2018-01-29T03:50:56.286Z,10.40
2018-01-29T03:53:23.878Z,10.40
2018-01-29T03:55:51.476Z,10.40
2018-01-29T03:58:20.021Z,10.40
2018-01-29T04:00:47.643Z,10.40
2018-01-29T04:03:22.579Z,10.40
2018-01-29T04:05:50.193Z,10.40
2018-01-29T04:08:21.411Z,10.40
2018-01-29T04:10:49.026Z,10.40
2018-01-29T04:13:16.644Z,10.40
2018-01-29T04:15:44.223Z,10.30
2018-01-29T04:18:11.838Z,10.30
2018-01-29T04:20:39.438Z,10.30
2018-01-29T04:23:08.834Z,10.20
2018-01-29T04:25:36.429Z,10.20
2018-01-29T04:28:04.070Z,10.20
2018-01-29T04:30:31.682Z,10.10
2018-01-29T04:33:00.288Z,10.20
2018-01-29T04:35:27.894Z,10.10
2018-01-29T04:37:59.325Z,10.10
2018-01-29T04:40:27.678Z,10.10
2018-01-29T04:42:59.355Z,10.00
2018-01-29T04:45:27.731Z,10.10
2018-01-29T04:47:57.336Z,10.10
2018-01-29T04:50:24.946Z,10.10
2018-01-29T04:52:53.559Z,10.00
2018-01-29T04:55:21.182Z,10.00
2018-01-29T04:57:52.363Z,10.10
2018-01-29T05:00:19.990Z,10.10
2018-01-29T05:02:47.582Z,10.00
2018-01-29T05:05:15.247Z,10.00
2018-01-29T05:07:46.492Z,10.00
2018-01-29T05:10:14.103Z,10.00
2018-01-29T05:12:41.704Z,10.00
2018-01-29T05:15:09.323Z,10.00
2018-01-29T05:17:37.833Z,10.00
2018-01-29T05:20:05.565Z,10.00
2018-01-29T05:22:34.095Z,9.90
2018-01-29T05:25:01.716Z,9.90
2018-01-29T05:27:29.311Z,9.90
2018-01-29T05:29:56.900Z,9.80
2018-01-29T05:32:24.555Z,9.80
2018-01-29T05:34:52.126Z,9.70
2018-01-29T05:37:23.405Z,9.80
2018-01-29T05:39:50.995Z,9.70
2018-01-29T05:42:20.619Z,9.70
2018-01-29T05:44:52.902Z,9.70
2018-01-29T05:47:26.056Z,9.70
2018-01-29T05:49:53.659Z,9.60
2018-01-29T05:52:22.039Z,9.60
2018-01-29T05:54:49.678Z,9.70
2018-01-29T05:57:17.351Z,9.60
2018-01-29T05:59:44.959Z,9.60
2018-01-29T06:02:15.693Z,9.50
2018-01-29T06:04:43.275Z,9.50
2018-01-29T06:07:14.456Z,9.50
2018-01-29T06:09:42.086Z,9.40
2018-01-29T06:12:09.716Z,9.40
2018-01-29T06:14:37.300Z,9.30
2018-01-29T06:17:05.032Z,9.40
2018-01-29T06:19:37.885Z,9.40
2018-01-29T06:22:06.179Z,9.40
2018-01-29T06:24:33.762Z,9.40
2018-01-29T06:27:01.337Z,9.40
2018-01-29T06:29:28.943Z,9.40
2018-01-29T06:31:57.283Z,9.40
2018-01-29T06:34:24.887Z,9.40
2018-01-29T06:36:52.474Z,9.40
2018-01-29T06:39:21.085Z,9.50
2018-01-29T06:41:48.658Z,9.50
2018-01-29T06:44:18.251Z,9.40
2018-01-29T06:46:45.842Z,9.40
2018-01-29T06:49:16.127Z,9.40
2018-01-29T06:51:43.703Z,9.40
2018-01-29T06:54:18.290Z,9.40
2018-01-29T06:56:45.859Z,9.40
2018-01-29T06:59:14.466Z,9.40
2018-01-29T07:01:42.041Z,9.40
2018-01-29T07:04:11.426Z,9.40
2018-01-29T07:06:39.000Z,9.40
2018-01-29T07:09:08.373Z,9.50
2018-01-29T07:11:35.975Z,9.40
2018-01-29T07:14:07.701Z,9.50
2018-01-29T07:16:35.317Z,9.50
2018-01-29T07:19:02.897Z,9.60
2018-01-29T07:21:30.512Z,9.50
2018-01-29T07:24:02.006Z,9.50
2018-01-29T07:26:29.618Z,9.50
2018-01-29T07:28:57.203Z,9.50
2018-01-29T07:31:24.807Z,9.50
2018-01-29T07:33:54.426Z,9.50
2018-01-29T07:36:22.039Z,9.60
2018-01-29T07:38:55.265Z,9.60
2018-01-29T07:41:22.885Z,9.60
2018-01-29T07:43:51.513Z,9.50
2018-01-29T07:46:19.113Z,9.60
2018-01-29T07:48:47.641Z,9.60
2018-01-29T07:51:15.426Z,9.80
2018-01-29T07:53:43.043Z,9.90
2018-01-29T07:56:10.667Z,9.90
2018-01-29T07:58:38.313Z,9.90
2018-01-29T08:01:05.895Z,9.90
2018-01-29T08:03:37.699Z,9.90
2018-01-29T08:06:05.424Z,9.90
2018-01-29T08:08:42.326Z,9.90
2018-01-29T08:11:09.907Z,10.10
2018-01-29T08:16:32.749Z,10.30
2018-01-29T08:19:00.344Z,10.20
2018-01-29T08:21:51.978Z,10.30
2018-01-29T08:24:19.651Z,10.30
2018-01-29T08:26:48.988Z,10.20
2018-01-29T08:29:17.367Z,10.20
2018-01-29T08:31:45.192Z,10.20
2018-01-29T08:34:12.839Z,10.10
2018-01-29T08:36:40.488Z,10.00
2018-01-29T08:39:08.087Z,10.00
2018-01-29T08:41:38.446Z,10.10
2018-01-29T08:44:06.042Z,10.10
2018-01-29T08:46:33.662Z,10.00
2018-01-29T08:49:01.249Z,10.10
2018-01-29T08:51:28.855Z,10.20
2018-01-29T08:53:56.482Z,10.20
2018-01-29T08:56:24.112Z,10.30
2018-01-29T08:58:51.686Z,10.20
2018-01-29T09:01:19.311Z,10.30
2018-01-29T09:03:46.916Z,10.30
2018-01-29T09:06:14.559Z,10.30
2018-01-29T09:08:42.171Z,10.30
2018-01-29T09:11:09.821Z,10.40
2018-01-29T09:13:38.469Z,10.40
2018-01-29T09:16:06.063Z,10.40
2018-01-29T09:18:33.816Z,10.50
2018-01-29T09:21:01.451Z,10.50
2018-01-29T09:23:29.096Z,10.50
2018-01-29T09:25:57.691Z,10.50
2018-01-29T09:28:25.347Z,10.50
2018-01-29T09:30:52.909Z,10.50
2018-01-29T09:33:20.522Z,10.50
2018-01-29T09:35:48.096Z,10.60
2018-01-29T09:38:15.724Z,10.70
2018-01-29T09:40:45.307Z,10.70
2018-01-29T09:43:12.927Z,10.70
2018-01-29T09:45:42.470Z,10.80
2018-01-29T09:48:10.077Z,10.80
2018-01-29T09:50:37.677Z,10.70
2018-01-29T09:53:05.249Z,10.70
2018-01-29T09:55:51.304Z,10.70
2018-01-29T09:58:21.420Z,10.80
2018-01-29T10:00:54.318Z,10.80
2018-01-29T10:03:21.911Z,10.80
2018-01-29T10:06:02.843Z,10.90
2018-01-29T10:08:30.424Z,10.80
2018-01-29T10:11:10.634Z,10.90
2018-01-29T10:13:38.998Z,10.90
2018-01-29T10:16:16.540Z,10.90
2018-01-29T10:18:44.130Z,10.90
2018-01-29T10:21:11.766Z,10.80
2018-01-29T10:23:39.347Z,10.80
2018-01-29T10:26:14.045Z,10.80
2018-01-29T10:28:41.646Z,10.80
2018-01-29T10:36:59.488Z,10.80
2018-01-29T10:39:27.103Z,10.80
2018-01-29T10:41:58.340Z,10.80
2018-01-29T10:44:26.075Z,10.90
2018-01-29T10:47:07.265Z,10.90
2018-01-29T10:49:34.886Z,10.90
2018-01-29T10:52:15.988Z,10.80
2018-01-29T10:54:44.424Z,10.90
2018-01-29T10:57:22.204Z,11.00
2018-01-29T10:59:50.621Z,10.90
2018-01-29T11:02:24.397Z,10.90
2018-01-29T11:04:52.008Z,10.90
2018-01-29T11:07:19.606Z,11.00
2018-01-29T11:09:47.952Z,10.90
2018-01-29T11:12:24.076Z,10.90
2018-01-29T11:14:51.650Z,11.00
2018-01-29T11:17:31.214Z,11.00
2018-01-29T11:19:58.786Z,11.10
2018-01-29T11:22:44.712Z,11.10
2018-01-29T11:25:12.295Z,11.10
2018-01-29T11:27:43.550Z,11.00
2018-01-29T11:30:11.131Z,10.90
2018-01-29T11:35:38.336Z,11.10
2018-01-29T11:38:05.945Z,11.10
2018-01-29T11:40:39.900Z,11.10
2018-01-29T11:43:07.513Z,11.00
2018-01-29T11:45:55.060Z,11.10
2018-01-29T11:48:22.679Z,11.20
2018-01-29T11:53:57.816Z,11.20
2018-01-29T11:56:25.400Z,11.20
2018-01-29T11:59:16.055Z,11.10
2018-01-29T12:01:44.388Z,11.20
2018-01-29T12:04:26.330Z,11.10
2018-01-29T12:06:54.693Z,11.10
2018-01-29T12:09:28.274Z,11.10
2018-01-29T12:11:55.869Z,11.10
2018-01-29T12:14:31.350Z,11.10
2018-01-29T12:16:58.928Z,11.10
2018-01-29T12:19:34.612Z,11.20
2018-01-29T12:22:02.960Z,11.20
2018-01-29T12:24:43.250Z,11.10
2018-01-29T12:27:11.588Z,11.10
2018-01-29T12:32:51.065Z,11.20
2018-01-29T12:35:18.666Z,11.20
2018-01-29T12:37:59.182Z,11.20
2018-01-29T12:40:26.783Z,11.10
2018-01-29T12:51:42.241Z,11.20
2018-01-29T12:54:09.821Z,11.10
2018-01-29T13:02:35.543Z,11.00
2018-01-29T13:05:03.114Z,11.10
2018-01-29T13:07:34.382Z,11.10
2018-01-29T13:10:01.963Z,11.10
2018-01-29T13:15:28.799Z,11.20
2018-01-29T13:17:57.120Z,11.00
2018-01-29T13:20:30.132Z,11.10
2018-01-29T13:22:58.393Z,11.00
2018-01-29T13:25:44.142Z,11.10
2018-01-29T13:28:11.752Z,11.10
2018-01-29T13:30:58.520Z,11.20
2018-01-29T13:33:26.135Z,11.30
2018-01-29T13:38:54.820Z,11.30
2018-01-29T13:41:22.413Z,11.40
2018-01-29T13:44:07.937Z,11.40
2018-01-29T13:46:36.269Z,11.40
2018-01-29T13:49:15.387Z,11.40
2018-01-29T13:51:42.977Z,11.40
2018-01-29T13:54:17.055Z,11.40
2018-01-29T13:56:44.673Z,11.30
2018-01-29T14:02:08.315Z,11.30
2018-01-29T14:04:35.925Z,11.30
2018-01-29T14:07:10.455Z,11.30
2018-01-29T14:09:38.086Z,11.30
2018-01-29T14:12:09.389Z,11.30
2018-01-29T14:14:36.960Z,11.20
2018-01-29T14:20:01.887Z,11.30
2018-01-29T14:22:29.459Z,11.30
2018-01-29T14:28:00.359Z,11.30
2018-01-29T14:30:27.961Z,11.30
2018-01-29T14:33:08.739Z,11.30
2018-01-29T14:35:36.363Z,11.40
2018-01-29T14:38:18.191Z,11.40
2018-01-29T14:40:45.799Z,11.40
2018-01-29T14:43:25.807Z,11.30
2018-01-29T14:45:53.423Z,11.30
2018-01-29T14:48:38.539Z,11.30
2018-01-29T14:51:06.159Z,11.40
2018-01-29T14:56:29.983Z,11.30
2018-01-29T14:58:57.554Z,11.30
2018-01-29T15:01:43.163Z,11.30
2018-01-29T15:04:10.735Z,11.20
2018-01-29T15:06:39.232Z,11.20
2018-01-29T15:09:06.831Z,11.20
2018-01-29T15:11:40.385Z,11.20
2018-01-29T15:14:08.752Z,11.20
2018-01-29T15:19:36.665Z,11.20
2018-01-29T15:22:04.270Z,11.20
2018-01-29T15:24:36.588Z,11.10
2018-01-29T15:27:04.226Z,11.10
2018-01-29T15:29:51.083Z,11.10
2018-01-29T15:32:18.712Z,11.10
2018-01-29T15:35:05.364Z,11.10
2018-01-29T15:37:32.974Z,11.00
2018-01-29T15:40:10.850Z,11.10
2018-01-29T15:42:39.233Z,11.00
2018-01-29T15:48:14.071Z,11.10
2018-01-29T15:50:42.407Z,11.10
2018-01-29T15:53:17.234Z,11.00
2018-01-29T15:55:44.878Z,11.20
2018-01-29T15:58:33.174Z,11.10
2018-01-29T16:01:00.743Z,11.10
2018-01-29T16:06:22.332Z,11.00
2018-01-29T16:08:49.943Z,11.00
2018-01-29T16:11:17.519Z,11.10
2018-01-29T16:13:45.110Z,11.00
2018-01-29T16:16:34.434Z,11.00
2018-01-29T16:19:02.827Z,11.00
2018-01-29T16:24:45.219Z,11.00
2018-01-29T16:27:12.813Z,10.90
2018-01-29T16:29:40.415Z,11.00
2018-01-29T16:32:08.001Z,11.10
2018-01-29T16:34:42.916Z,11.00
2018-01-29T16:37:10.491Z,11.00
2018-01-29T16:39:40.068Z,10.90
2018-01-29T16:42:07.641Z,11.10
2018-01-29T16:47:34.751Z,11.00
2018-01-29T16:50:02.359Z,11.00
2018-01-29T16:52:29.928Z,11.00
2018-01-29T16:54:57.537Z,11.00
2018-01-29T16:57:36.243Z,11.00
2018-01-29T17:00:04.022Z,11.00
2018-01-29T17:02:37.422Z,11.00
2018-01-29T17:05:05.031Z,10.90
2018-01-29T17:13:44.618Z,11.00
2018-01-29T17:16:12.225Z,11.00
2018-01-29T17:18:51.259Z,10.90
2018-01-29T17:21:18.877Z,10.90
2018-01-29T17:23:48.232Z,10.90
2018-01-29T17:26:15.859Z,10.90
2018-01-29T17:29:02.125Z,10.90
2018-01-29T17:31:29.731Z,10.90
2018-01-29T17:33:58.323Z,10.80
2018-01-29T17:36:25.931Z,10.70
2018-01-29T17:38:53.511Z,10.80
2018-01-29T17:41:21.339Z,10.80
2018-01-29T17:43:52.568Z,10.80
2018-01-29T17:46:20.144Z,10.80
2018-01-29T17:48:47.752Z,10.80
2018-01-29T17:51:15.330Z,10.70
2018-01-29T17:53:47.740Z,10.70
2018-01-29T17:56:15.347Z,10.60
2018-01-29T17:59:00.808Z,10.60
2018-01-29T18:01:29.143Z,10.60
2018-01-29T18:04:02.231Z,10.60
2018-01-29T18:06:29.806Z,10.60
2018-01-29T18:09:10.800Z,10.60
2018-01-29T18:11:39.143Z,10.40
2018-01-29T18:14:08.768Z,10.40
2018-01-29T18:16:36.398Z,10.40
2018-01-29T18:19:17.538Z,10.30
2018-01-29T18:21:45.111Z,10.30
2018-01-29T18:24:26.573Z,10.20
2018-01-29T18:26:54.929Z,9.90
2018-01-29T18:29:22.526Z,9.90
2018-01-29T18:31:50.112Z,9.90
2018-01-29T18:34:25.626Z,9.80
2018-01-29T18:36:53.219Z,9.80
2018-01-29T18:39:35.863Z,9.60
2018-01-29T18:42:03.473Z,9.40
2018-01-29T18:44:31.070Z,9.40
2018-01-29T18:46:58.669Z,9.20
2018-01-29T18:49:50.787Z,9.00
2018-01-29T18:52:18.392Z,8.80
2018-01-29T18:54:57.296Z,8.70
2018-01-29T18:57:24.914Z,8.60
2018-01-29T19:02:52.355Z,8.50
2018-01-29T19:05:19.928Z,8.40
2018-01-29T19:07:53.975Z,8.40
2018-01-29T19:10:22.334Z,8.40
2018-01-29T19:13:03.517Z,8.30
2018-01-29T19:15:31.090Z,8.30
2018-01-29T19:18:07.230Z,8.30
2018-01-29T19:20:34.807Z,8.20
2018-01-29T19:26:18.163Z,8.20
2018-01-29T19:28:46.527Z,8.30
2018-01-29T19:31:17.536Z,8.20
2018-01-29T19:33:45.141Z,8.30
2018-01-29T19:39:16.626Z,8.20
2018-01-29T19:41:45.060Z,8.20
2018-01-29T19:47:14.727Z,8.20
2018-01-29T19:49:43.090Z,8.20
2018-01-29T19:52:18.544Z,8.20
2018-01-29T19:54:46.903Z,8.20
2018-01-29T20:00:28.952Z,8.30
2018-01-29T20:02:56.531Z,8.30
2018-01-29T20:05:25.060Z,8.30
2018-01-29T20:07:52.639Z,8.30
2018-01-29T20:10:22.001Z,8.40
2018-01-29T20:12:49.664Z,8.40
2018-01-29T20:15:22.971Z,8.30
2018-01-29T20:17:50.538Z,8.30
2018-01-29T20:20:25.944Z,8.30
2018-01-29T20:22:53.536Z,8.30
2018-01-29T20:25:23.130Z,8.40
2018-01-29T20:27:50.690Z,8.50
2018-01-29T20:30:20.316Z,8.40
2018-01-29T20:32:47.905Z,8.40
2018-01-29T20:38:15.299Z,8.30
2018-01-29T20:40:42.907Z,8.30
2018-01-29T20:43:11.447Z,8.20
2018-01-29T20:45:39.015Z,8.20
2018-01-29T20:48:16.608Z,8.20
2018-01-29T20:50:44.179Z,8.20
2018-01-29T20:53:18.980Z,8.20
2018-01-29T20:55:46.560Z,8.10
2018-01-29T20:58:16.093Z,8.20
2018-01-29T21:00:43.689Z,8.10
2018-01-29T21:03:13.265Z,8.00
2018-01-29T21:18:20.036Z,7.90
2018-01-29T21:20:48.421Z,7.50
2018-01-29T21:23:16.068Z,7.50
2018-01-29T21:25:43.696Z,7.50
2018-01-29T21:28:11.310Z,7.40
2018-01-29T21:30:38.954Z,7.30
2018-01-29T21:33:08.592Z,7.20
2018-01-29T21:35:36.227Z,7.00
2018-01-29T21:38:03.854Z,6.90
2018-01-29T21:40:31.471Z,6.90
2018-01-29T21:42:59.093Z,6.80
2018-01-29T21:45:27.165Z,6.70
2018-01-29T21:47:54.800Z,6.70
2018-01-29T21:50:22.442Z,6.60
2018-01-29T21:52:50.084Z,6.60
2018-01-29T21:55:17.687Z,6.60
2018-01-29T21:57:46.348Z,6.60
2018-01-29T22:00:14.167Z,6.50
2018-01-29T22:02:42.729Z,6.50
2018-01-29T22:05:10.356Z,6.50
2018-01-29T22:07:37.996Z,6.50
2018-01-29T22:10:05.638Z,6.50
2018-01-29T22:12:33.357Z,6.40
2018-01-29T22:15:00.976Z,6.40
2018-01-29T22:17:28.593Z,6.40
2018-01-29T22:19:56.250Z,6.40
2018-01-29T22:22:23.897Z,6.40
2018-01-29T22:24:51.524Z,6.40
2018-01-29T22:27:19.169Z,6.30
2018-01-29T22:29:46.830Z,6.30
2018-01-29T22:32:14.483Z,6.30
2018-01-29T22:34:42.126Z,6.30
2018-01-29T22:37:09.781Z,6.30
2018-01-29T22:39:37.408Z,6.30
2018-01-29T22:42:05.330Z,6.30
2018-01-29T22:44:33.018Z,6.30
2018-01-29T22:47:00.709Z,6.30
2018-01-29T22:49:28.416Z,6.30
2018-01-29T22:51:56.054Z,6.40
2018-01-29T22:54:23.764Z,6.40
2018-01-29T22:56:51.420Z,6.30
2018-01-29T22:59:19.078Z,6.30
2018-01-29T23:01:46.727Z,6.30
2018-01-29T23:04:14.363Z,6.30
2018-01-29T23:06:42.013Z,6.30
2018-01-29T23:09:09.668Z,6.30
2018-01-29T23:11:37.300Z,6.30
2018-01-29T23:14:04.928Z,6.30
2018-01-29T23:16:32.555Z,6.40
2018-01-29T23:19:00.176Z,6.40
2018-01-29T23:21:27.829Z,6.30
2018-01-29T23:23:55.463Z,6.30
2018-01-29T23:26:23.104Z,6.20
2018-01-29T23:28:50.727Z,6.10
2018-01-29T23:31:18.356Z,6.10
2018-01-29T23:33:45.971Z,6.00
2018-01-29T23:36:13.601Z,5.90
2018-01-29T23:38:41.195Z,5.90
2018-01-29T23:41:08.838Z,5.90
2018-01-29T23:43:36.495Z,5.90
2018-01-29T23:46:04.129Z,5.80
2018-01-29T23:48:31.784Z,5.80
2018-01-29T23:50:59.422Z,5.80
2018-01-29T23:53:27.029Z,5.80
2018-01-29T23:55:54.638Z,5.80
2018-01-29T23:58:22.287Z,5.70
